Time;durP1;ratioP1;P1;durP2;ratioP2;P2;SDS_P1;SDS_P2;PMS_P1;PMS_P2;Temp;Humidity;BMP_temperature;BMP_pressure;BME280_temperature;BME280_humidity;BME280_pressure;Samples;Min_cycle;Max_cycle;Signal;HPM_P1;HPM_P2
2022/08/18 00:02:04;;;;;;;23.90;20.08;;;;;;;20.31;100.00;101136.69;5091945;28;20044;-50
2022/08/18 00:04:37;;;;;;;27.38;23.80;;;;;;;20.33;100.00;101137.19;5091987;28;20407;-51
2022/08/18 00:07:22;;;;;;;26.90;23.77;;;;;;;20.35;100.00;101145.19;5073350;28;20514;-47
2022/08/18 00:09:50;;;;;;;28.65;25.40;;;;;;;20.32;100.00;101146.63;5093063;28;20055;-48
2022/08/18 00:12:31;;;;;;;28.98;25.65;;;;;;;20.30;100.00;101140.63;5074806;28;20093;-50
2022/08/18 00:15:04;;;;;;;30.40;25.65;;;;;;;20.28;100.00;101139.31;5075073;28;20441;-50
2022/08/18 00:17:33;;;;;;;28.00;25.10;;;;;;;20.27;100.00;101140.44;5094064;28;20067;-51
2022/08/18 00:20:03;;;;;;;28.50;25.48;;;;;;;20.25;100.00;101143.53;5062133;28;20081;-49
2022/08/18 00:22:31;;;;;;;29.75;23.88;;;;;;;20.26;100.00;101144.34;5096246;28;20048;-48
2022/08/18 00:24:59;;;;;;;31.40;25.73;;;;;;;20.25;100.00;101132.44;5096433;28;20093;-52
2022/08/18 00:27:29;;;;;;;30.92;26.77;;;;;;;20.25;100.00;101131.66;5096210;28;20032;-48
2022/08/18 00:29:59;;;;;;;28.35;25.15;;;;;;;20.22;100.00;101133.09;5077326;28;20047;-49
2022/08/18 00:32:36;;;;;;;29.50;25.33;;;;;;;20.21;100.00;101137.84;5078380;28;20046;-49
2022/08/18 00:35:08;;;;;;;27.35;24.15;;;;;;;20.22;100.00;101144.19;5096541;28;20060;-51
2022/08/18 00:37:37;;;;;;;27.58;24.60;;;;;;;20.22;100.00;101146.94;5096005;28;20032;-49
2022/08/18 00:40:06;;;;;;;28.58;24.25;;;;;;;20.22;100.00;101149.72;5095880;28;20036;-53
2022/08/18 00:42:42;;;;;;;27.42;24.52;;;;;;;20.23;100.00;101148.59;5076365;28;20387;-51
2022/08/18 00:45:14;;;;;;;27.80;22.92;;;;;;;20.23;100.00;101159.66;5096203;28;20039;-52
2022/08/18 00:47:42;;;;;;;26.67;23.85;;;;;;;20.22;100.00;101169.88;5095248;28;20036;-50
2022/08/18 00:50:18;;;;;;;28.98;24.95;;;;;;;20.19;100.00;101172.50;5095645;28;20051;-52
2022/08/18 00:52:52;;;;;;;30.73;24.88;;;;;;;20.15;100.00;101171.53;5078245;28;20097;-51
2022/08/18 00:55:20;;;;;;;32.17;25.40;;;;;;;20.15;100.00;101177.06;5077265;28;20043;-53
2022/08/18 00:57:50;;;;;;;29.30;25.17;;;;;;;20.13;100.00;101176.56;5077991;28;20036;-50
2022/08/18 01:00:17;;;;;;;25.92;23.20;;;;;;;20.11;100.00;101174.13;5077740;28;20040;-52
2022/08/18 01:02:49;;;;;;;29.27;23.95;;;;;;;20.11;100.00;101167.78;5056131;28;20036;-49
2022/08/18 01:05:19;;;;;;;27.33;22.08;;;;;;;20.11;100.00;101176.09;5095825;28;20044;-49
2022/08/18 01:07:48;;;;;;;28.77;22.27;;;;;;;20.08;100.00;101168.41;5094584;28;20043;-51
2022/08/18 01:10:19;;;;;;;27.77;23.67;;;;;;;20.07;100.00;101167.63;5091177;28;20426;-51
2022/08/18 01:12:49;;;;;;;26.38;23.52;;;;;;;20.07;100.00;101169.56;5078141;28;20089;-51
2022/08/18 01:15:18;;;;;;;28.05;23.40;;;;;;;20.04;100.00;101173.81;5077331;28;20039;-51
2022/08/18 01:23:40;;;;;;;27.07;22.57;;;;;;;20.02;100.00;101161.44;5089038;28;20505;-52
2022/08/18 01:26:08;;;;;;;27.63;22.95;;;;;;;20.00;100.00;101161.75;5095573;28;20407;-52
2022/08/18 01:28:41;;;;;;;25.85;21.98;;;;;;;19.96;100.00;101158.81;5076500;28;20081;-54
2022/08/18 01:31:10;;;;;;;25.13;22.15;;;;;;;19.94;100.00;101177.69;5094149;28;20043;-50
2022/08/18 01:33:41;;;;;;;26.60;21.67;;;;;;;19.93;100.00;101170.50;5086145;28;20448;-50
2022/08/18 01:36:18;;;;;;;25.27;21.48;;;;;;;19.90;100.00;101156.53;5076034;28;20486;-55
2022/08/18 01:38:49;;;;;;;24.70;20.65;;;;;;;19.90;100.00;101159.31;5060644;28;20043;-50
2022/08/18 01:41:21;;;;;;;24.45;21.15;;;;;;;19.87;100.00;101165.47;5094591;28;20062;-50
2022/08/18 01:43:58;;;;;;;24.48;20.05;;;;;;;19.85;100.00;101157.50;5093864;28;20048;-54
2022/08/18 01:46:28;;;;;;;23.98;20.95;;;;;;;19.83;100.00;101157.00;5077477;28;20494;-50
2022/08/18 01:48:59;;;;;;;28.35;20.58;;;;;;;19.82;100.00;101160.91;5076970;28;20036;-50
2022/08/18 01:51:30;;;;;;;23.92;20.50;;;;;;;19.83;100.00;101167.25;5094595;28;20040;-51
2022/08/18 01:54:11;;;;;;;24.23;20.08;;;;;;;19.83;100.00;101164.50;5062581;28;20050;-51
2022/08/18 01:56:41;;;;;;;21.58;18.83;;;;;;;19.84;100.00;101166.91;5076980;28;20032;-53
2022/08/18 01:59:12;;;;;;;26.58;19.98;;;;;;;19.83;100.00;101168.06;5077000;28;20054;-52
2022/08/18 02:01:42;;;;;;;22.02;18.67;;;;;;;19.83;100.00;101165.28;5077357;28;20575;-52
2022/08/18 02:04:17;;;;;;;22.63;19.02;;;;;;;19.81;100.00;101164.00;5093760;28;20042;-52
2022/08/18 02:07:07;;;;;;;25.95;19.00;;;;;;;19.80;100.00;101160.41;5079062;28;20384;-51
2022/08/18 02:09:37;;;;;;;22.85;17.88;;;;;;;19.79;100.00;101162.38;5094593;28;20044;-51
2022/08/18 02:12:06;;;;;;;22.50;18.25;;;;;;;19.78;100.00;101162.69;5080412;28;20038;-51
2022/08/18 02:14:35;;;;;;;25.30;18.60;;;;;;;19.79;100.00;101164.31;5076655;28;20040;-49
2022/08/18 02:17:05;;;;;;;21.60;19.27;;;;;;;19.78;100.00;101157.16;5093243;28;20036;-50
2022/08/18 02:19:39;;;;;;;24.40;19.67;;;;;;;19.75;100.00;101158.63;5066427;28;20043;-50
2022/08/18 02:22:08;;;;;;;22.75;18.92;;;;;;;19.73;100.00;101155.34;5076546;28;20028;-49
2022/08/18 02:24:36;;;;;;;22.67;19.63;;;;;;;19.71;100.00;101173.41;5076105;28;20108;-51
2022/08/18 02:27:04;;;;;;;23.42;19.17;;;;;;;19.68;100.00;101172.09;5094151;28;20044;-52
2022/08/18 02:29:32;;;;;;;25.33;19.45;;;;;;;19.69;100.00;101175.66;5075323;28;20048;-51
2022/08/18 02:32:00;;;;;;;28.52;20.48;;;;;;;19.68;100.00;101163.81;5091777;28;20067;-52
2022/08/18 02:34:27;;;;;;;24.33;19.58;;;;;;;19.68;100.00;101165.75;5094049;28;20044;-51
2022/08/18 02:36:55;;;;;;;29.77;20.58;;;;;;;19.67;100.00;101166.84;5093890;28;20048;-51
2022/08/18 02:39:23;;;;;;;26.02;20.48;;;;;;;19.67;100.00;101172.38;5093396;28;20059;-52
2022/08/18 02:41:50;;;;;;;22.10;18.27;;;;;;;19.64;100.00;101167.50;5092868;28;20452;-50
2022/08/18 02:44:18;;;;;;;24.25;20.30;;;;;;;19.57;100.00;101179.81;5093532;28;20044;-50
2022/08/18 02:46:50;;;;;;;25.35;20.55;;;;;;;19.54;100.00;101179.66;5094112;28;20566;-50
2022/08/18 02:49:18;;;;;;;22.60;19.75;;;;;;;19.53;100.00;101178.84;5093706;28;20036;-52
2022/08/18 02:51:45;;;;;;;25.35;19.52;;;;;;;19.53;100.00;101167.81;5093484;28;20032;-51
2022/08/18 02:54:13;;;;;;;27.63;20.00;;;;;;;19.53;100.00;101176.09;5092695;28;20048;-51
2022/08/18 02:56:44;;;;;;;23.98;20.48;;;;;;;19.49;100.00;101180.63;5093580;28;20044;-52
2022/08/18 02:59:20;;;;;;;23.42;20.63;;;;;;;19.45;100.00;101171.34;5092649;28;20052;-48
2022/08/18 03:01:50;;;;;;;24.30;19.25;;;;;;;19.42;100.00;101171.97;5092878;28;20044;-53
2022/08/18 03:04:26;;;;;;;25.73;18.20;;;;;;;19.44;100.00;101178.00;5074661;28;20044;-51
2022/08/18 03:06:59;;;;;;;22.13;16.73;;;;;;;19.49;100.00;101177.06;5079504;28;20547;-51
2022/08/18 03:09:28;;;;;;;19.80;16.90;;;;;;;19.53;100.00;101165.03;5091697;28;20495;-51
2022/08/18 03:11:56;;;;;;;20.63;16.20;;;;;;;19.60;100.00;101175.59;5079613;28;20040;-49
2022/08/18 03:14:24;;;;;;;20.90;16.70;;;;;;;19.61;100.00;101173.69;5093237;28;20040;-49
2022/08/18 03:16:52;;;;;;;17.98;15.18;;;;;;;19.62;100.00;101170.56;5093583;28;20044;-51
2022/08/18 03:19:29;;;;;;;21.98;16.48;;;;;;;19.61;100.00;101168.97;5092446;28;20036;-51
2022/08/18 03:21:58;;;;;;;19.90;17.15;;;;;;;19.56;100.00;101169.91;5093589;28;20036;-50
2022/08/18 03:24:30;;;;;;;16.95;13.98;;;;;;;19.50;100.00;101171.19;5075078;28;20089;-50
2022/08/18 03:27:00;;;;;;;18.75;13.45;;;;;;;19.53;100.00;101184.38;5075814;28;20073;-53
2022/08/18 03:29:28;;;;;;;18.48;14.23;;;;;;;19.59;100.00;101183.09;5093776;28;20043;-50
2022/08/18 03:32:01;;;;;;;19.95;15.45;;;;;;;19.63;100.00;101188.00;5093812;28;20048;-55
2022/08/18 03:34:29;;;;;;;21.95;16.85;;;;;;;19.65;100.00;101188.47;5094826;28;20040;-52
2022/08/18 03:36:57;;;;;;;16.90;14.85;;;;;;;19.64;100.00;101195.16;5093573;28;20044;-56
2022/08/18 03:39:26;;;;;;;20.95;16.40;;;;;;;19.65;100.00;101196.75;5093289;28;20047;-51
2022/08/18 03:41:55;;;;;;;20.48;15.55;;;;;;;19.64;100.00;101197.91;5093332;28;20051;-52
2022/08/18 03:44:29;;;;;;;19.50;16.15;;;;;;;19.62;100.00;101202.94;5074650;28;20398;-52
2022/08/18 03:46:57;;;;;;;21.60;16.17;;;;;;;19.59;100.00;101196.09;5092614;28;20044;-49
2022/08/18 03:49:26;;;;;;;22.90;16.92;;;;;;;19.57;100.00;101201.13;5093215;28;20040;-50
2022/08/18 03:51:53;;;;;;;19.17;16.25;;;;;;;19.55;100.00;101197.88;5078042;28;20036;-49
2022/08/18 03:54:21;;;;;;;19.17;16.55;;;;;;;19.57;100.00;101195.59;5096803;28;20036;-50
2022/08/18 03:56:49;;;;;;;21.30;17.33;;;;;;;19.60;100.00;101186.66;5095919;28;20043;-49
2022/08/18 03:59:20;;;;;;;29.20;17.48;;;;;;;19.59;100.00;101191.38;5097052;28;20088;-50
2022/08/18 04:01:49;;;;;;;21.15;18.33;;;;;;;19.59;100.00;101185.03;5095486;28;20099;-53
2022/08/18 04:04:20;;;;;;;24.05;19.83;;;;;;;19.57;100.00;101185.34;5095719;28;20032;-55
2022/08/18 04:06:55;;;;;;;23.17;19.95;;;;;;;19.56;100.00;101182.94;5095559;28;20407;-54
2022/08/18 04:09:26;;;;;;;23.00;19.93;;;;;;;19.53;100.00;101175.25;5095876;28;20051;-54
2022/08/18 04:11:55;;;;;;;21.90;19.13;;;;;;;19.51;100.00;101175.59;5062014;28;20044;-54
2022/08/18 04:14:25;;;;;;;23.48;20.45;;;;;;;19.49;100.00;101172.34;5065242;28;20040;-54
2022/08/18 04:16:53;;;;;;;30.98;20.23;;;;;;;19.47;100.00;101184.84;5096502;28;20036;-54
2022/08/18 04:19:20;;;;;;;23.67;21.00;;;;;;;19.45;100.00;101182.38;5096538;28;20048;-52
2022/08/18 04:21:54;;;;;;;23.45;20.95;;;;;;;19.44;100.00;101180.78;5095932;28;20044;-53
2022/08/18 04:24:22;;;;;;;27.63;23.05;;;;;;;19.43;100.00;101178.31;5096223;28;20048;-56
2022/08/18 04:26:49;;;;;;;26.13;22.85;;;;;;;19.39;100.00;101180.91;5078426;28;20040;-53
2022/08/18 04:29:19;;;;;;;25.48;21.55;;;;;;;19.39;100.00;101177.34;5096544;28;20517;-54
2022/08/18 04:31:49;;;;;;;26.17;22.08;;;;;;;19.39;100.00;101183.69;5096696;28;20410;-53
2022/08/18 04:34:19;;;;;;;27.02;22.75;;;;;;;19.38;100.00;101190.31;5076566;28;20062;-51
2022/08/18 04:36:47;;;;;;;29.83;24.40;;;;;;;19.37;100.00;101188.72;5096033;28;20063;-49
2022/08/18 04:39:15;;;;;;;30.80;25.73;;;;;;;19.36;100.00;101185.13;5096625;28;20062;-51
2022/08/18 04:41:43;;;;;;;34.78;28.55;;;;;;;19.35;100.00;101183.50;5096494;28;20047;-49
2022/08/18 04:44:12;;;;;;;36.83;30.13;;;;;;;19.34;100.00;101183.81;5096075;28;20040;-49
2022/08/18 04:46:50;;;;;;;36.00;28.88;;;;;;;19.32;100.00;101189.66;5095178;28;20044;-52
2022/08/18 04:49:20;;;;;;;32.78;28.55;;;;;;;19.29;100.00;101189.47;5077020;28;20051;-51
2022/08/18 04:53:43;;;;;;;37.40;28.88;;;;;;;19.27;100.00;101186.22;5095949;28;20089;-50
2022/08/18 04:54:57;;;;;;;33.72;28.85;;;;;;;19.26;100.00;101190.09;5084679;28;20040;-49
2022/08/18 04:57:25;;;;;;;38.75;30.13;;;;;;;19.24;100.00;101192.38;5095739;28;20127;-50
2022/08/18 04:59:53;;;;;;;31.63;27.30;;;;;;;19.23;100.00;101199.03;5094528;28;20031;-49
2022/08/18 05:02:21;;;;;;;35.83;28.88;;;;;;;19.23;100.00;101202.63;5095474;28;20048;-51
2022/08/18 05:04:51;;;;;;;32.83;28.13;;;;;;;19.22;100.00;101201.00;5075584;28;20043;-52
2022/08/18 05:07:24;;;;;;;35.08;27.42;;;;;;;19.21;100.00;101204.06;5095815;28;20040;-51
2022/08/18 05:09:52;;;;;;;30.58;27.27;;;;;;;19.21;100.00;101206.81;5076297;28;20417;-48
2022/08/18 05:12:20;;;;;;;31.48;27.08;;;;;;;19.19;100.00;101201.59;5077756;28;20402;-50
2022/08/18 05:14:55;;;;;;;29.63;26.40;;;;;;;19.17;100.00;101203.91;5095032;28;20048;-47
2022/08/18 05:17:27;;;;;;;27.13;22.65;;;;;;;19.18;100.00;101200.00;5061455;28;20040;-47
2022/08/18 05:19:58;;;;;;;34.88;25.17;;;;;;;19.23;100.00;101201.81;5077458;28;20032;-50
2022/08/18 05:22:27;;;;;;;31.85;23.60;;;;;;;19.20;100.00;101208.78;5077581;28;20494;-51
2022/08/18 05:24:58;;;;;;;26.52;23.08;;;;;;;19.15;100.00;101203.41;5095237;28;20044;-51
2022/08/18 05:27:31;;;;;;;28.75;24.02;;;;;;;19.02;100.00;101213.38;5094790;28;20040;-51
2022/08/18 05:30:00;;;;;;;33.10;26.67;;;;;;;18.92;100.00;101202.59;5095447;28;20486;-52
2022/08/18 05:32:30;;;;;;;31.77;25.23;;;;;;;18.87;100.00;101203.53;5075842;28;20080;-47
2022/08/18 05:35:22;;;;;;;29.95;26.60;;;;;;;18.82;100.00;101200.09;4389551;28;10000374;-51
2022/08/18 05:37:55;;;;;;;31.08;24.30;;;;;;;18.82;100.00;101205.63;5072241;28;20044;-51
2022/08/18 05:40:23;;;;;;;28.23;22.77;;;;;;;18.90;100.00;101207.63;5087081;28;20106;-52
2022/08/18 05:42:52;;;;;;;26.13;22.85;;;;;;;18.96;100.00;101203.59;5064847;28;20048;-51
2022/08/18 05:45:20;;;;;;;28.77;23.80;;;;;;;19.02;100.00;101213.38;5073859;28;20051;-51
2022/08/18 05:47:48;;;;;;;27.65;22.80;;;;;;;19.07;100.00;101216.03;5073578;28;20104;-50
2022/08/18 05:50:20;;;;;;;26.52;21.55;;;;;;;19.12;100.00;101207.59;5073680;28;20100;-53
2022/08/18 05:52:57;;;;;;;31.35;22.20;;;;;;;19.19;100.00;101220.94;5090840;28;20490;-53
2022/08/18 05:58:45;;;;;;;27.35;19.75;;;;;;;19.35;100.00;101226.88;5075759;28;20399;-54
2022/08/18 06:01:17;;;;;;;32.17;25.92;;;;;;;19.35;100.00;101229.66;5073583;28;20036;-51
2022/08/18 06:04:19;;;;;;;27.80;23.33;;;;;;;19.25;100.00;101229.94;5072380;28;20059;-54
2022/08/18 06:06:48;;;;;;;28.15;22.00;;;;;;;19.19;100.00;101222.91;5057238;28;20058;-51
2022/08/18 06:09:21;;;;;;;29.20;21.05;;;;;;;19.19;100.00;101222.91;5073262;28;20398;-52
2022/08/18 06:11:49;;;;;;;32.13;21.10;;;;;;;19.24;100.00;101220.00;5091236;28;20041;-52
2022/08/18 06:14:18;;;;;;;27.38;23.73;;;;;;;19.26;100.00;101226.84;5072881;28;20062;-52
2022/08/18 06:17:02;;;;;;;25.70;20.63;;;;;;;19.24;100.00;101225.53;5089472;28;20036;-55
2022/08/18 06:19:36;;;;;;;27.65;23.25;;;;;;;19.21;100.00;101235.25;5078056;28;20051;-52
2022/08/18 06:22:09;;;;;;;27.38;20.00;;;;;;;19.20;100.00;101235.59;5091251;28;20559;-57
2022/08/18 06:24:43;;;;;;;30.00;24.40;;;;;;;19.22;100.00;101238.84;5091019;28;20456;-51
2022/08/18 06:27:19;;;;;;;27.75;23.27;;;;;;;19.15;100.00;101234.59;5073197;28;20055;-51
2022/08/18 06:30:20;;;;;;;27.35;22.70;;;;;;;19.20;100.00;101246.66;5087867;28;20043;-53
2022/08/18 06:33:34;;;;;;;25.83;21.20;;;;;;;19.24;100.00;101236.56;5071623;28;20056;-50
2022/08/18 06:36:13;;;;;;;30.25;24.67;;;;;;;19.27;100.00;101244.25;5031803;28;20188;-49
2022/08/18 06:39:03;;;;;;;24.10;21.00;;;;;;;19.24;100.00;101242.09;5072815;28;20092;-46
2022/08/18 06:41:44;;;;;;;28.85;23.08;;;;;;;19.23;100.00;101254.28;5084545;28;20047;-52
2022/08/18 06:44:15;;;;;;;25.45;20.17;;;;;;;19.22;100.00;101258.16;5091132;28;20040;-49
2022/08/18 06:47:03;;;;;;;27.55;18.52;;;;;;;19.23;100.00;101257.06;5072788;28;20093;-55
2022/08/18 06:49:56;;;;;;;25.73;21.90;;;;;;;19.23;100.00;101257.06;5072565;28;20059;-53
2022/08/18 06:52:32;;;;;;;26.65;19.10;;;;;;;19.23;100.00;101257.06;5067503;28;20054;-53
2022/08/18 06:55:12;;;;;;;23.17;20.05;;;;;;;19.22;100.00;101255.41;5090550;28;20040;-49
2022/08/18 06:58:02;;;;;;;28.27;19.20;;;;;;;19.21;100.00;101259.31;5090371;28;20044;-51
2022/08/18 07:00:35;;;;;;;25.60;19.00;;;;;;;19.23;100.00;101263.38;5089892;28;20040;-51
2022/08/18 07:03:06;;;;;;;26.05;18.00;;;;;;;19.28;100.00;101256.91;5072549;28;20040;-50
2022/08/18 07:05:35;;;;;;;26.77;18.80;;;;;;;19.30;100.00;101257.41;5090104;28;20529;-46
2022/08/18 07:08:28;;;;;;;23.40;18.10;;;;;;;19.30;100.00;101258.22;5087158;28;20115;-48
2022/08/18 07:10:59;;;;;;;21.38;18.17;;;;;;;19.32;100.00;101263.44;5089256;28;20410;-52
2022/08/18 07:13:30;;;;;;;19.15;15.18;;;;;;;19.35;100.00;101260.06;5072246;28;20040;-50
2022/08/18 07:16:16;;;;;;;21.88;16.30;;;;;;;19.41;100.00;101263.47;5072323;28;20051;-53
2022/08/18 07:19:12;;;;;;;19.17;15.70;;;;;;;19.45;100.00;101254.25;5089927;28;20035;-50
2022/08/18 07:21:40;;;;;;;18.77;14.40;;;;;;;19.49;100.00;101260.78;5089880;28;20047;-52
2022/08/18 07:24:22;;;;;;;20.73;14.10;;;;;;;19.50;100.00;101262.41;5090471;28;20039;-49
2022/08/18 07:27:08;;;;;;;20.63;15.38;;;;;;;19.56;100.00;101255.59;5090732;28;20050;-52
2022/08/18 07:29:40;;;;;;;23.63;16.13;;;;;;;19.56;100.00;101266.66;5072581;28;20047;-52
2022/08/18 07:32:17;;;;;;;24.90;19.02;;;;;;;19.62;100.00;101258.22;5089971;28;20052;-51
2022/08/18 07:34:56;;;;;;;27.77;18.00;;;;;;;19.61;100.00;101254.66;5072674;28;20054;-49
2022/08/18 07:37:58;;;;;;;20.63;15.57;;;;;;;19.66;100.00;101264.75;5073834;28;20065;-52
2022/08/18 07:40:41;;;;;;;25.70;17.60;;;;;;;19.69;100.00;101261.38;5076227;28;20056;-49
2022/08/18 07:43:17;;;;;;;20.15;15.15;;;;;;;19.66;100.00;101260.03;5075393;28;20044;-52
2022/08/18 07:45:46;;;;;;;22.65;16.45;;;;;;;19.69;100.00;101264.94;5075451;28;20036;-51
2022/08/18 07:48:19;;;;;;;23.42;17.35;;;;;;;19.70;100.00;101274.91;5093681;28;20483;-51
2022/08/18 07:51:12;;;;;;;21.40;15.70;;;;;;;19.71;100.00;101267.41;5077876;28;20043;-52
2022/08/18 07:54:03;;;;;;;21.67;14.10;;;;;;;19.74;100.00;101269.53;5093107;28;20047;-53
2022/08/18 07:56:49;;;;;;;15.68;13.13;;;;;;;19.78;100.00;101265.81;5092337;28;20051;-53
2022/08/18 07:59:29;;;;;;;23.25;14.23;;;;;;;19.86;100.00;101268.94;5075074;28;20043;-53
2022/08/18 08:01:59;;;;;;;17.88;14.23;;;;;;;19.88;100.00;101264.69;5079458;28;20101;-50
2022/08/18 08:04:40;;;;;;;23.52;16.38;;;;;;;19.90;100.00;101265.19;5092448;28;20500;-53
2022/08/18 08:07:20;;;;;;;18.65;13.52;;;;;;;19.89;100.00;101258.06;5075364;28;20032;-51
2022/08/18 08:10:25;;;;;;;19.77;13.00;;;;;;;19.90;100.00;101259.66;5075381;28;20044;-52
2022/08/18 08:13:27;;;;;;;19.73;12.02;;;;;;;19.93;100.00;101263.75;5092585;28;20048;-49
2022/08/18 08:16:39;;;;;;;17.27;12.50;;;;;;;19.93;100.00;101267.31;5031212;28;20040;-52
2022/08/18 08:19:19;;;;;;;15.50;11.27;;;;;;;20.00;100.00;101269.63;5081954;28;20437;-49
2022/08/18 08:22:22;;;;;;;18.55;12.23;;;;;;;20.09;100.00;101266.88;5091493;28;20409;-49
2022/08/18 08:25:08;;;;;;;12.82;9.60;;;;;;;20.12;100.00;101257.94;5073830;28;20044;-51
2022/08/18 08:28:06;;;;;;;23.38;15.77;;;;;;;20.17;100.00;101268.84;5091604;28;20104;-52
2022/08/18 08:30:58;;;;;;;17.27;13.52;;;;;;;20.17;100.00;101277.97;5092527;28;20040;-52
2022/08/18 08:34:13;;;;;;;15.75;12.10;;;;;;;20.15;100.00;101276.66;5077159;28;20474;-52
2022/08/18 08:36:43;;;;;;;16.70;11.47;;;;;;;20.15;100.00;101274.69;5072903;28;20056;-55
2022/08/18 08:39:27;;;;;;;14.13;10.20;;;;;;;20.18;100.00;101281.56;5074165;28;20298;-54
2022/08/18 08:41:59;;;;;;;12.65;8.63;;;;;;;20.22;100.00;101277.00;5077549;28;20044;-54
2022/08/18 08:44:59;;;;;;;17.58;12.40;;;;;;;20.27;100.00;101271.31;5079882;28;20048;-53
2022/08/18 08:47:50;;;;;;;18.15;11.85;;;;;;;20.28;100.00;101275.72;5058882;28;20036;-52
2022/08/18 08:50:22;;;;;;;16.63;12.65;;;;;;;20.29;100.00;101277.34;5088695;28;20063;-48
2022/08/18 08:52:57;;;;;;;19.17;13.25;;;;;;;20.27;100.00;101276.84;5076961;28;20101;-48
2022/08/18 08:55:29;;;;;;;14.18;10.50;;;;;;;20.32;100.00;101278.63;5094394;28;20055;-52
2022/08/18 08:58:02;;;;;;;16.58;10.25;;;;;;;20.39;100.00;101288.09;5076188;28;20032;-50
2022/08/18 09:00:30;;;;;;;15.05;9.85;;;;;;;20.45;100.00;101285.19;5076363;28;20036;-51
2022/08/18 09:03:35;;;;;;;15.88;10.82;;;;;;;20.48;100.00;101287.31;5094483;28;20048;-50
2022/08/18 09:06:34;;;;;;;15.80;10.10;;;;;;;20.46;100.00;101284.84;5088165;28;20097;-54
2022/08/18 09:09:07;;;;;;;16.23;9.25;;;;;;;20.47;100.00;101280.97;5082819;28;20055;-53
2022/08/18 09:11:54;;;;;;;16.23;9.98;;;;;;;20.48;100.00;101279.00;5075880;28;20036;-49
2022/08/18 09:14:59;;;;;;;13.25;9.48;;;;;;;20.52;100.00;101275.25;5094296;28;20044;-48
2022/08/18 09:17:51;;;;;;;13.40;7.82;;;;;;;20.54;100.00;101278.53;5083754;28;20043;-51
2022/08/18 09:20:39;;;;;;;10.88;7.45;;;;;;;20.54;98.47;101288.75;5075054;28;20036;-50
2022/08/18 09:23:29;;;;;;;10.50;6.55;;;;;;;20.54;98.11;101286.00;5088462;28;20044;-49
2022/08/18 09:25:59;;;;;;;13.45;7.90;;;;;;;20.54;98.09;101292.38;5094235;28;20043;-47
2022/08/18 09:28:27;;;;;;;11.20;7.47;;;;;;;20.55;98.36;101287.66;5076459;28;20032;-52
2022/08/18 09:31:01;;;;;;;12.98;6.82;;;;;;;20.56;98.28;101280.97;5092186;28;20039;-48
2022/08/18 09:33:32;;;;;;;10.85;7.35;;;;;;;20.58;96.83;101289.78;5085526;28;20036;-50
2022/08/18 09:36:37;;;;;;;13.57;7.38;;;;;;;20.60;97.26;101298.59;5055952;28;1086520;-46
2022/08/18 09:42:32;;;;;;;14.35;8.50;;;;;;;20.68;97.83;101283.91;5095380;28;20044;-51
2022/08/18 09:45:29;;;;;;;12.82;8.02;;;;;;;20.69;96.88;101277.25;5079184;28;20494;-51
2022/08/18 09:48:28;;;;;;;12.38;8.20;;;;;;;20.70;97.45;101276.09;5094016;28;20198;-50
2022/08/18 09:50:57;;;;;;;11.57;7.07;;;;;;;20.74;97.93;101271.56;5094121;28;20413;-49
2022/08/18 09:53:32;;;;;;;9.35;6.88;;;;;;;20.78;96.23;101278.06;5094428;28;20035;-49
2022/08/18 09:56:00;;;;;;;12.70;7.40;;;;;;;20.82;94.23;101279.03;5076623;28;20043;-48
2022/08/18 09:58:51;;;;;;;12.77;7.55;;;;;;;20.84;93.87;101278.72;5094573;28;20406;-50
2022/08/18 10:01:20;;;;;;;10.95;6.53;;;;;;;20.89;93.84;101274.97;5094476;28;20044;-49
2022/08/18 10:04:13;;;;;;;17.90;6.25;;;;;;;20.93;94.19;101285.06;5094529;28;20051;-52
2022/08/18 10:06:42;;;;;;;10.55;5.90;;;;;;;20.96;93.28;101289.94;5094933;28;20043;-49
2022/08/18 10:09:40;;;;;;;11.27;6.35;;;;;;;21.00;92.17;101279.03;5072294;28;20141;-49
2022/08/18 10:12:11;;;;;;;8.13;5.38;;;;;;;21.03;92.64;101267.28;5089425;28;20047;-49
2022/08/18 10:14:51;;;;;;;8.27;5.13;;;;;;;21.06;92.03;101272.19;5094562;28;20051;-52
2022/08/18 10:17:47;;;;;;;8.27;4.90;;;;;;;21.12;92.67;101270.03;5094415;28;20044;-51
2022/08/18 10:20:48;;;;;;;8.93;5.50;;;;;;;21.16;92.31;101271.81;5087855;28;20089;-52
2022/08/18 10:23:48;;;;;;;11.15;6.50;;;;;;;21.19;92.00;101265.66;5076269;28;20024;-52
2022/08/18 10:26:54;;;;;;;10.00;6.03;;;;;;;21.22;91.85;101264.16;5081491;28;20036;-52
2022/08/18 10:29:28;;;;;;;8.60;5.40;;;;;;;21.27;91.70;101264.00;5093563;28;20040;-51
2022/08/18 10:31:56;;;;;;;9.27;6.28;;;;;;;21.31;90.85;101258.59;5093179;28;20047;-53
2022/08/18 10:34:44;;;;;;;9.63;6.68;;;;;;;21.32;90.59;101263.00;5094118;28;20043;-49
2022/08/18 10:37:42;;;;;;;9.75;6.75;;;;;;;21.30;89.84;101268.88;5093856;28;20124;-51
2022/08/18 10:40:29;;;;;;;7.85;5.63;;;;;;;21.31;89.89;101261.34;5091732;28;20055;-50
2022/08/18 10:43:06;;;;;;;12.25;8.00;;;;;;;21.32;89.78;101257.47;4371959;28;10000686;-54
2022/08/18 10:45:54;;;;;;;11.45;6.50;;;;;;;21.36;89.50;101252.88;5074826;28;20044;-51
2022/08/18 10:48:42;;;;;;;12.05;7.43;;;;;;;21.40;87.20;101253.88;5075426;28;20101;-53
2022/08/18 10:51:31;;;;;;;9.65;6.78;;;;;;;21.47;86.76;101254.97;5088515;28;20501;-53
2022/08/18 10:54:27;;;;;;;11.20;7.18;;;;;;;21.57;85.29;101267.66;5090273;28;20494;-50
2022/08/18 10:57:46;;;;;;;9.90;6.22;;;;;;;21.60;86.42;101264.25;5073081;28;20054;-56
2022/08/18 11:00:18;;;;;;;11.13;5.97;;;;;;;21.64;86.70;101259.66;5046606;28;20041;-49
2022/08/18 11:03:20;;;;;;;12.93;7.63;;;;;;;21.66;85.26;101260.13;5086603;28;20424;-53
2022/08/18 11:06:13;;;;;;;8.20;5.30;;;;;;;21.68;85.71;101257.84;5075360;28;20108;-50
2022/08/18 11:08:50;;;;;;;16.67;7.25;;;;;;;21.72;82.76;101266.31;5090422;28;20510;-51
2022/08/18 11:11:33;;;;;;;10.35;6.85;;;;;;;21.76;80.51;101263.69;5089125;28;20051;-51
2022/08/18 11:14:45;;;;;;;8.60;6.38;;;;;;;21.77;81.38;101256.97;5083187;28;20040;-52
2022/08/18 11:17:39;;;;;;;9.25;5.75;;;;;;;21.81;80.19;101255.97;4979786;28;20407;-56
2022/08/18 11:20:13;;;;;;;6.70;5.05;;;;;;;21.89;79.46;101254.34;4987957;28;20038;-52
2022/08/18 11:22:52;;;;;;;9.13;5.70;;;;;;;21.93;78.77;101249.72;5041640;28;20044;-54
2022/08/18 11:25:33;;;;;;;7.97;5.15;;;;;;;22.00;77.71;101241.69;5085893;28;20040;-54
2022/08/18 11:28:01;;;;;;;8.52;5.20;;;;;;;22.04;77.24;101231.53;5090104;28;20036;-53
2022/08/18 11:30:34;;;;;;;8.73;5.50;;;;;;;22.10;75.90;101226.59;5089897;28;20097;-50
2022/08/18 11:33:04;;;;;;;10.45;6.10;;;;;;;22.15;76.43;101228.38;5069418;28;20051;-54
2022/08/18 11:35:47;;;;;;;8.95;6.10;;;;;;;22.20;76.22;101219.84;5071549;28;20059;-52
2022/08/18 11:38:18;;;;;;;9.38;6.75;;;;;;;22.23;74.63;101222.00;5090116;28;20052;-53
2022/08/18 11:40:51;;;;;;;10.20;6.45;;;;;;;22.25;75.89;101216.94;5090034;28;20055;-50
2022/08/18 11:43:39;;;;;;;9.63;6.80;;;;;;;22.24;76.50;101218.06;5073299;28;20047;-54
2022/08/18 11:46:16;;;;;;;9.82;7.05;;;;;;;22.20;76.65;101215.16;5072636;28;20053;-56
2022/08/18 11:48:51;;;;;;;12.48;9.20;;;;;;;22.19;75.82;101210.72;5089729;28;20044;-53
2022/08/18 11:51:24;;;;;;;11.73;8.93;;;;;;;22.18;75.88;101206.31;5072033;28;20040;-53
2022/08/18 11:54:03;;;;;;;11.20;8.77;;;;;;;22.22;75.73;101196.19;5088559;28;20048;-52
2022/08/18 11:56:34;;;;;;;13.57;7.03;;;;;;;22.29;77.12;101195.66;5075858;28;20395;-55
2022/08/18 11:59:31;;;;;;;11.30;8.48;;;;;;;22.38;76.77;101190.84;5093472;28;20044;-53
2022/08/18 12:02:19;;;;;;;11.80;7.63;;;;;;;22.46;76.96;101189.94;5092343;28;20040;-51